sensor_id;sensor_type;location;lat;lon;timestamp;P1;durP1;ratioP1;P2;durP2;ratioP2
61642;SDS011;47551;52.506;4.678;2022-10-31T00:00:09;6.37;;;3.00;;
61642;SDS011;47551;52.506;4.678;2022-10-31T00:00:29;6.27;;;3.13;;
61642;SDS011;47551;52.506;4.678;2022-10-31T00:00:49;7.97;;;3.20;;
61642;SDS011;47551;52.506;4.678;2022-10-31T00:01:14;7.00;;;2.90;;
61642;SDS011;47551;52.506;4.678;2022-10-31T00:01:35;7.20;;;3.20;;
61642;SDS011;47551;52.506;4.678;2022-10-31T00:01:56;6.45;;;3.00;;
61642;SDS011;47551;52.506;4.678;2022-10-31T00:02:16;5.40;;;2.93;;
61642;SDS011;47551;52.506;4.678;2022-10-31T00:02:37;5.57;;;3.00;;
61642;SDS011;47551;52.506;4.678;2022-10-31T00:02:57;7.13;;;3.20;;
61642;SDS011;47551;52.506;4.678;2022-10-31T00:03:17;7.50;;;3.10;;
61642;SDS011;47551;52.506;4.678;2022-10-31T00:03:37;6.33;;;2.87;;
61642;SDS011;47551;52.506;4.678;2022-10-31T00:03:57;6.47;;;3.10;;
61642;SDS011;47551;52.506;4.678;2022-10-31T00:04:18;6.93;;;3.50;;
61642;SDS011;47551;52.506;4.678;2022-10-31T00:04:38;5.93;;;3.15;;
61642;SDS011;47551;52.506;4.678;2022-10-31T00:04:58;6.67;;;3.10;;
61642;SDS011;47551;52.506;4.678;2022-10-31T00:05:18;6.23;;;3.13;;
61642;SDS011;47551;52.506;4.678;2022-10-31T00:05:48;6.27;;;3.20;;
61642;SDS011;47551;52.506;4.678;2022-10-31T00:06:09;6.32;;;3.20;;
61642;SDS011;47551;52.506;4.678;2022-10-31T00:06:29;6.03;;;3.07;;
61642;SDS011;47551;52.506;4.678;2022-10-31T00:06:49;6.22;;;2.90;;
61642;SDS011;47551;52.506;4.678;2022-10-31T00:07:09;6.80;;;3.20;;
61642;SDS011;47551;52.506;4.678;2022-10-31T00:07:30;7.10;;;3.20;;
61642;SDS011;47551;52.506;4.678;2022-10-31T00:07:53;7.10;;;2.97;;
61642;SDS011;47551;52.506;4.678;2022-10-31T00:08:13;5.95;;;3.10;;
61642;SDS011;47551;52.506;4.678;2022-10-31T00:08:34;5.43;;;3.07;;
61642;SDS011;47551;52.506;4.678;2022-10-31T00:08:55;6.87;;;3.27;;
61642;SDS011;47551;52.506;4.678;2022-10-31T00:09:15;8.13;;;3.47;;
61642;SDS011;47551;52.506;4.678;2022-10-31T00:09:36;6.20;;;3.00;;
61642;SDS011;47551;52.506;4.678;2022-10-31T00:09:56;6.32;;;3.10;;
61642;SDS011;47551;52.506;4.678;2022-10-31T00:10:16;5.93;;;3.20;;
61642;SDS011;47551;52.506;4.678;2022-10-31T00:10:39;6.03;;;3.03;;
61642;SDS011;47551;52.506;4.678;2022-10-31T00:11:00;6.67;;;3.07;;
61642;SDS011;47551;52.506;4.678;2022-10-31T00:11:20;6.43;;;3.05;;
61642;SDS011;47551;52.506;4.678;2022-10-31T00:11:40;6.23;;;3.13;;
61642;SDS011;47551;52.506;4.678;2022-10-31T00:12:00;6.17;;;3.10;;
61642;SDS011;47551;52.506;4.678;2022-10-31T00:12:20;6.83;;;3.10;;
61642;SDS011;47551;52.506;4.678;2022-10-31T00:12:41;5.70;;;3.22;;
61642;SDS011;47551;52.506;4.678;2022-10-31T00:13:04;6.72;;;3.13;;
61642;SDS011;47551;52.506;4.678;2022-10-31T00:13:24;6.93;;;3.23;;
61642;SDS011;47551;52.506;4.678;2022-10-31T00:13:47;5.97;;;3.30;;
61642;SDS011;47551;52.506;4.678;2022-10-31T00:14:07;6.27;;;3.07;;
61642;SDS011;47551;52.506;4.678;2022-10-31T00:14:27;5.90;;;2.80;;
61642;SDS011;47551;52.506;4.678;2022-10-31T00:14:47;4.87;;;2.83;;
61642;SDS011;47551;52.506;4.678;2022-10-31T00:15:08;6.00;;;3.03;;
61642;SDS011;47551;52.506;4.678;2022-10-31T00:15:28;6.10;;;3.10;;
61642;SDS011;47551;52.506;4.678;2022-10-31T00:15:48;6.85;;;3.20;;
61642;SDS011;47551;52.506;4.678;2022-10-31T00:16:55;6.07;;;3.15;;
61642;SDS011;47551;52.506;4.678;2022-10-31T00:17:15;6.83;;;3.33;;
61642;SDS011;47551;52.506;4.678;2022-10-31T00:17:35;6.33;;;3.33;;
61642;SDS011;47551;52.506;4.678;2022-10-31T00:17:56;5.20;;;3.05;;
61642;SDS011;47551;52.506;4.678;2022-10-31T00:18:18;6.18;;;3.08;;
61642;SDS011;47551;52.506;4.678;2022-10-31T00:18:38;5.60;;;3.20;;
61642;SDS011;47551;52.506;4.678;2022-10-31T00:18:59;5.83;;;3.30;;
61642;SDS011;47551;52.506;4.678;2022-10-31T00:19:19;6.55;;;3.35;;
61642;SDS011;47551;52.506;4.678;2022-10-31T00:19:40;5.73;;;3.10;;
61642;SDS011;47551;52.506;4.678;2022-10-31T00:20:00;5.37;;;3.30;;
61642;SDS011;47551;52.506;4.678;2022-10-31T00:20:20;6.40;;;3.03;;
61642;SDS011;47551;52.506;4.678;2022-10-31T00:20:40;6.17;;;3.30;;
61642;SDS011;47551;52.506;4.678;2022-10-31T00:21:01;5.90;;;3.10;;
61642;SDS011;47551;52.506;4.678;2022-10-31T00:21:21;5.90;;;3.13;;
61642;SDS011;47551;52.506;4.678;2022-10-31T00:21:42;5.63;;;3.10;;
61642;SDS011;47551;52.506;4.678;2022-10-31T00:22:02;4.80;;;2.80;;
61642;SDS011;47551;52.506;4.678;2022-10-31T00:22:22;4.80;;;2.80;;
61642;SDS011;47551;52.506;4.678;2022-10-31T00:22:42;6.40;;;2.70;;
61642;SDS011;47551;52.506;4.678;2022-10-31T00:23:03;6.70;;;3.00;;
61642;SDS011;47551;52.506;4.678;2022-10-31T00:23:23;7.45;;;3.20;;
61642;SDS011;47551;52.506;4.678;2022-10-31T00:23:44;5.57;;;3.00;;
61642;SDS011;47551;52.506;4.678;2022-10-31T00:24:05;5.47;;;3.13;;
61642;SDS011;47551;52.506;4.678;2022-10-31T00:24:25;6.13;;;3.20;;
61642;SDS011;47551;52.506;4.678;2022-10-31T00:24:45;6.80;;;2.87;;
61642;SDS011;47551;52.506;4.678;2022-10-31T00:25:06;6.60;;;3.13;;
61642;SDS011;47551;52.506;4.678;2022-10-31T00:25:26;5.45;;;3.15;;
61642;SDS011;47551;52.506;4.678;2022-10-31T00:25:47;5.32;;;2.90;;
61642;SDS011;47551;52.506;4.678;2022-10-31T00:26:07;5.33;;;3.03;;
61642;SDS011;47551;52.506;4.678;2022-10-31T00:26:28;6.43;;;3.20;;
61642;SDS011;47551;52.506;4.678;2022-10-31T00:26:51;6.13;;;3.20;;
61642;SDS011;47551;52.506;4.678;2022-10-31T00:27:11;6.30;;;3.00;;
61642;SDS011;47551;52.506;4.678;2022-10-31T00:27:31;6.17;;;3.00;;
61642;SDS011;47551;52.506;4.678;2022-10-31T00:27:51;7.03;;;3.03;;
61642;SDS011;47551;52.506;4.678;2022-10-31T00:28:11;7.35;;;3.28;;
61642;SDS011;47551;52.506;4.678;2022-10-31T00:28:32;4.60;;;2.80;;
61642;SDS011;47551;52.506;4.678;2022-10-31T00:28:52;5.70;;;3.20;;
61642;SDS011;47551;52.506;4.678;2022-10-31T00:29:12;6.67;;;3.20;;
61642;SDS011;47551;52.506;4.678;2022-10-31T00:29:32;6.57;;;3.27;;
61642;SDS011;47551;52.506;4.678;2022-10-31T00:29:56;6.85;;;3.40;;
61642;SDS011;47551;52.506;4.678;2022-10-31T00:30:16;6.47;;;3.27;;
61642;SDS011;47551;52.506;4.678;2022-10-31T00:30:36;6.37;;;2.97;;
61642;SDS011;47551;52.506;4.678;2022-10-31T00:31:03;7.10;;;2.90;;
61642;SDS011;47551;52.506;4.678;2022-10-31T00:31:24;5.72;;;2.95;;
61642;SDS011;47551;52.506;4.678;2022-10-31T00:31:44;5.27;;;3.10;;
61642;SDS011;47551;52.506;4.678;2022-10-31T00:32:04;6.00;;;3.10;;
61642;SDS011;47551;52.506;4.678;2022-10-31T00:32:25;6.63;;;3.17;;
61642;SDS011;47551;52.506;4.678;2022-10-31T00:32:45;6.63;;;2.97;;
61642;SDS011;47551;52.506;4.678;2022-10-31T00:33:05;5.80;;;3.00;;
61642;SDS011;47551;52.506;4.678;2022-10-31T00:33:25;5.23;;;2.90;;
61642;SDS011;47551;52.506;4.678;2022-10-31T00:33:45;5.50;;;2.90;;
61642;SDS011;47551;52.506;4.678;2022-10-31T00:34:06;5.63;;;2.90;;
61642;SDS011;47551;52.506;4.678;2022-10-31T00:34:26;5.93;;;2.90;;
61642;SDS011;47551;52.506;4.678;2022-10-31T00:34:55;6.55;;;3.28;;
61642;SDS011;47551;52.506;4.678;2022-10-31T00:35:15;6.07;;;3.15;;
61642;SDS011;47551;52.506;4.678;2022-10-31T00:35:35;4.85;;;2.97;;
61642;SDS011;47551;52.506;4.678;2022-10-31T00:35:56;5.77;;;3.10;;
61642;SDS011;47551;52.506;4.678;2022-10-31T00:36:17;5.97;;;3.03;;
61642;SDS011;47551;52.506;4.678;2022-10-31T00:36:37;6.60;;;3.25;;
61642;SDS011;47551;52.506;4.678;2022-10-31T00:36:57;5.60;;;2.90;;
61642;SDS011;47551;52.506;4.678;2022-10-31T00:37:38;6.20;;;3.30;;
61642;SDS011;47551;52.506;4.678;2022-10-31T00:37:58;6.00;;;3.10;;
61642;SDS011;47551;52.506;4.678;2022-10-31T00:38:18;6.27;;;3.00;;
61642;SDS011;47551;52.506;4.678;2022-10-31T00:38:38;5.50;;;2.97;;
61642;SDS011;47551;52.506;4.678;2022-10-31T00:38:59;5.70;;;3.00;;
61642;SDS011;47551;52.506;4.678;2022-10-31T00:39:19;5.67;;;3.10;;
61642;SDS011;47551;52.506;4.678;2022-10-31T00:39:42;6.00;;;3.10;;
61642;SDS011;47551;52.506;4.678;2022-10-31T00:40:05;5.72;;;3.20;;
61642;SDS011;47551;52.506;4.678;2022-10-31T00:40:25;5.50;;;3.20;;
61642;SDS011;47551;52.506;4.678;2022-10-31T00:40:45;5.73;;;3.20;;
61642;SDS011;47551;52.506;4.678;2022-10-31T00:41:06;6.05;;;3.10;;
61642;SDS011;47551;52.506;4.678;2022-10-31T00:41:26;7.27;;;3.37;;
61642;SDS011;47551;52.506;4.678;2022-10-31T00:41:46;6.60;;;3.30;;
61642;SDS011;47551;52.506;4.678;2022-10-31T00:42:06;6.47;;;3.08;;
61642;SDS011;47551;52.506;4.678;2022-10-31T00:42:27;5.50;;;3.10;;
61642;SDS011;47551;52.506;4.678;2022-10-31T00:42:47;6.07;;;3.30;;
61642;SDS011;47551;52.506;4.678;2022-10-31T00:43:10;6.65;;;3.38;;
61642;SDS011;47551;52.506;4.678;2022-10-31T00:43:30;6.00;;;3.20;;
61642;SDS011;47551;52.506;4.678;2022-10-31T00:43:50;5.65;;;3.38;;
61642;SDS011;47551;52.506;4.678;2022-10-31T00:44:10;5.70;;;3.33;;
61642;SDS011;47551;52.506;4.678;2022-10-31T00:44:30;6.03;;;3.30;;
61642;SDS011;47551;52.506;4.678;2022-10-31T00:44:51;6.50;;;3.30;;
61642;SDS011;47551;52.506;4.678;2022-10-31T00:45:11;5.60;;;3.38;;
61642;SDS011;47551;52.506;4.678;2022-10-31T00:45:31;5.33;;;3.17;;
61642;SDS011;47551;52.506;4.678;2022-10-31T00:45:51;6.00;;;3.10;;
61642;SDS011;47551;52.506;4.678;2022-10-31T00:46:12;6.23;;;3.20;;
61642;SDS011;47551;52.506;4.678;2022-10-31T00:46:32;6.95;;;3.30;;
61642;SDS011;47551;52.506;4.678;2022-10-31T00:46:52;6.53;;;3.50;;
61642;SDS011;47551;52.506;4.678;2022-10-31T00:47:12;6.70;;;3.40;;
61642;SDS011;47551;52.506;4.678;2022-10-31T00:47:32;7.53;;;3.30;;
61642;SDS011;47551;52.506;4.678;2022-10-31T00:47:53;6.50;;;3.20;;
61642;SDS011;47551;52.506;4.678;2022-10-31T00:48:13;7.53;;;3.33;;
61642;SDS011;47551;52.506;4.678;2022-10-31T00:48:33;7.43;;;3.37;;
61642;SDS011;47551;52.506;4.678;2022-10-31T00:48:53;6.07;;;3.40;;
61642;SDS011;47551;52.506;4.678;2022-10-31T00:49:13;7.10;;;3.47;;
61642;SDS011;47551;52.506;4.678;2022-10-31T00:49:36;5.93;;;3.47;;
61642;SDS011;47551;52.506;4.678;2022-10-31T00:49:56;5.23;;;3.30;;
61642;SDS011;47551;52.506;4.678;2022-10-31T00:50:17;5.30;;;3.17;;
61642;SDS011;47551;52.506;4.678;2022-10-31T00:50:37;6.30;;;3.40;;
61642;SDS011;47551;52.506;4.678;2022-10-31T00:50:57;5.65;;;3.50;;
61642;SDS011;47551;52.506;4.678;2022-10-31T00:51:18;6.40;;;3.70;;
61642;SDS011;47551;52.506;4.678;2022-10-31T00:51:38;6.23;;;3.60;;
61642;SDS011;47551;52.506;4.678;2022-10-31T00:51:58;6.85;;;3.45;;
61642;SDS011;47551;52.506;4.678;2022-10-31T00:52:21;7.05;;;3.53;;
61642;SDS011;47551;52.506;4.678;2022-10-31T00:52:41;6.40;;;3.70;;
61642;SDS011;47551;52.506;4.678;2022-10-31T00:53:02;6.90;;;3.47;;
61642;SDS011;47551;52.506;4.678;2022-10-31T00:53:22;6.68;;;3.28;;
61642;SDS011;47551;52.506;4.678;2022-10-31T00:53:42;5.77;;;3.10;;
61642;SDS011;47551;52.506;4.678;2022-10-31T00:54:02;5.73;;;3.30;;
61642;SDS011;47551;52.506;4.678;2022-10-31T00:54:22;6.90;;;3.30;;
61642;SDS011;47551;52.506;4.678;2022-10-31T00:54:43;5.68;;;3.45;;
61642;SDS011;47551;52.506;4.678;2022-10-31T00:55:03;6.10;;;3.50;;
61642;SDS011;47551;52.506;4.678;2022-10-31T00:55:23;6.53;;;3.60;;
61642;SDS011;47551;52.506;4.678;2022-10-31T00:55:43;5.88;;;3.55;;
61642;SDS011;47551;52.506;4.678;2022-10-31T00:56:04;6.97;;;3.70;;
61642;SDS011;47551;52.506;4.678;2022-10-31T00:56:24;6.80;;;3.70;;
61642;SDS011;47551;52.506;4.678;2022-10-31T00:56:44;5.60;;;3.60;;
61642;SDS011;47551;52.506;4.678;2022-10-31T00:57:07;6.40;;;3.50;;
61642;SDS011;47551;52.506;4.678;2022-10-31T00:57:27;5.97;;;3.40;;
61642;SDS011;47551;52.506;4.678;2022-10-31T00:57:48;5.87;;;3.60;;
61642;SDS011;47551;52.506;4.678;2022-10-31T00:58:08;6.37;;;3.50;;
61642;SDS011;47551;52.506;4.678;2022-10-31T00:58:28;6.60;;;3.80;;
61642;SDS011;47551;52.506;4.678;2022-10-31T00:58:48;6.50;;;4.00;;
61642;SDS011;47551;52.506;4.678;2022-10-31T00:59:08;7.67;;;3.60;;
61642;SDS011;47551;52.506;4.678;2022-10-31T00:59:29;6.57;;;3.63;;
61642;SDS011;47551;52.506;4.678;2022-10-31T00:59:49;6.30;;;3.58;;
61642;SDS011;47551;52.506;4.678;2022-10-31T01:00:09;6.23;;;3.63;;
61642;SDS011;47551;52.506;4.678;2022-10-31T01:00:29;7.17;;;3.90;;
61642;SDS011;47551;52.506;4.678;2022-10-31T01:00:50;6.18;;;3.97;;
61642;SDS011;47551;52.506;4.678;2022-10-31T01:01:16;6.15;;;3.45;;
61642;SDS011;47551;52.506;4.678;2022-10-31T01:01:36;7.07;;;3.87;;
61642;SDS011;47551;52.506;4.678;2022-10-31T01:01:56;6.77;;;3.87;;
61642;SDS011;47551;52.506;4.678;2022-10-31T01:02:16;7.03;;;3.93;;
61642;SDS011;47551;52.506;4.678;2022-10-31T01:02:37;6.30;;;3.60;;
61642;SDS011;47551;52.506;4.678;2022-10-31T01:03:00;6.22;;;3.55;;
61642;SDS011;47551;52.506;4.678;2022-10-31T01:03:23;7.43;;;3.80;;
61642;SDS011;47551;52.506;4.678;2022-10-31T01:03:47;7.97;;;3.88;;
61642;SDS011;47551;52.506;4.678;2022-10-31T01:04:07;6.53;;;3.80;;
61642;SDS011;47551;52.506;4.678;2022-10-31T01:04:27;5.70;;;3.80;;
61642;SDS011;47551;52.506;4.678;2022-10-31T01:04:50;6.53;;;3.75;;
61642;SDS011;47551;52.506;4.678;2022-10-31T01:05:10;6.70;;;4.00;;
61642;SDS011;47551;52.506;4.678;2022-10-31T01:05:36;7.10;;;4.13;;
61642;SDS011;47551;52.506;4.678;2022-10-31T01:06:07;6.13;;;4.00;;
61642;SDS011;47551;52.506;4.678;2022-10-31T01:06:27;6.45;;;4.10;;
61642;SDS011;47551;52.506;4.678;2022-10-31T01:06:50;6.67;;;4.10;;
61642;SDS011;47551;52.506;4.678;2022-10-31T01:07:10;6.93;;;3.90;;
61642;SDS011;47551;52.506;4.678;2022-10-31T01:07:37;6.25;;;4.00;;
61642;SDS011;47551;52.506;4.678;2022-10-31T01:07:58;7.45;;;4.20;;
61642;SDS011;47551;52.506;4.678;2022-10-31T01:08:18;6.80;;;4.10;;
61642;SDS011;47551;52.506;4.678;2022-10-31T01:08:39;7.20;;;4.40;;
61642;SDS011;47551;52.506;4.678;2022-10-31T01:08:59;6.55;;;4.15;;
61642;SDS011;47551;52.506;4.678;2022-10-31T01:09:19;6.77;;;4.30;;
61642;SDS011;47551;52.506;4.678;2022-10-31T01:09:39;7.07;;;4.17;;
61642;SDS011;47551;52.506;4.678;2022-10-31T01:10:00;6.80;;;4.10;;
61642;SDS011;47551;52.506;4.678;2022-10-31T01:10:20;7.67;;;4.20;;
61642;SDS011;47551;52.506;4.678;2022-10-31T01:10:40;7.32;;;4.15;;
61642;SDS011;47551;52.506;4.678;2022-10-31T01:11:02;6.77;;;3.90;;
61642;SDS011;47551;52.506;4.678;2022-10-31T01:11:23;7.10;;;4.30;;
61642;SDS011;47551;52.506;4.678;2022-10-31T01:11:43;7.22;;;4.50;;
61642;SDS011;47551;52.506;4.678;2022-10-31T01:12:03;6.73;;;4.17;;
61642;SDS011;47551;52.506;4.678;2022-10-31T01:12:24;6.67;;;3.93;;
61642;SDS011;47551;52.506;4.678;2022-10-31T01:12:45;6.23;;;4.00;;
61642;SDS011;47551;52.506;4.678;2022-10-31T01:13:05;6.25;;;4.20;;
61642;SDS011;47551;52.506;4.678;2022-10-31T01:13:25;6.30;;;4.10;;
61642;SDS011;47551;52.506;4.678;2022-10-31T01:13:46;7.00;;;4.10;;
61642;SDS011;47551;52.506;4.678;2022-10-31T01:14:06;7.55;;;4.20;;
61642;SDS011;47551;52.506;4.678;2022-10-31T01:14:26;7.30;;;4.30;;
61642;SDS011;47551;52.506;4.678;2022-10-31T01:14:47;6.47;;;4.30;;
61642;SDS011;47551;52.506;4.678;2022-10-31T01:15:07;7.20;;;4.67;;
61642;SDS011;47551;52.506;4.678;2022-10-31T01:15:28;6.57;;;4.43;;
61642;SDS011;47551;52.506;4.678;2022-10-31T01:15:53;6.80;;;4.37;;
61642;SDS011;47551;52.506;4.678;2022-10-31T01:16:20;8.30;;;4.40;;
61642;SDS011;47551;52.506;4.678;2022-10-31T01:16:41;6.53;;;4.15;;
61642;SDS011;47551;52.506;4.678;2022-10-31T01:17:01;7.10;;;4.10;;
61642;SDS011;47551;52.506;4.678;2022-10-31T01:17:21;7.90;;;4.20;;
61642;SDS011;47551;52.506;4.678;2022-10-31T01:17:41;6.57;;;4.22;;
61642;SDS011;47551;52.506;4.678;2022-10-31T01:18:04;6.45;;;4.13;;
61642;SDS011;47551;52.506;4.678;2022-10-31T01:18:24;6.40;;;4.13;;
61642;SDS011;47551;52.506;4.678;2022-10-31T01:18:47;6.32;;;4.47;;
61642;SDS011;47551;52.506;4.678;2022-10-31T01:19:08;7.53;;;4.37;;
61642;SDS011;47551;52.506;4.678;2022-10-31T01:19:28;8.20;;;4.88;;
61642;SDS011;47551;52.506;4.678;2022-10-31T01:19:48;7.50;;;4.33;;
61642;SDS011;47551;52.506;4.678;2022-10-31T01:20:09;8.53;;;4.57;;
61642;SDS011;47551;52.506;4.678;2022-10-31T01:20:30;8.95;;;4.70;;
61642;SDS011;47551;52.506;4.678;2022-10-31T01:21:00;8.37;;;4.67;;
61642;SDS011;47551;52.506;4.678;2022-10-31T01:21:21;8.65;;;4.43;;
61642;SDS011;47551;52.506;4.678;2022-10-31T01:21:42;7.95;;;4.38;;
61642;SDS011;47551;52.506;4.678;2022-10-31T01:22:02;6.90;;;4.37;;
61642;SDS011;47551;52.506;4.678;2022-10-31T01:22:22;8.00;;;4.20;;
61642;SDS011;47551;52.506;4.678;2022-10-31T01:22:42;6.80;;;4.20;;
61642;SDS011;47551;52.506;4.678;2022-10-31T01:23:02;6.33;;;4.40;;
61642;SDS011;47551;52.506;4.678;2022-10-31T01:23:22;7.13;;;4.47;;
61642;SDS011;47551;52.506;4.678;2022-10-31T01:23:43;7.57;;;4.60;;
61642;SDS011;47551;52.506;4.678;2022-10-31T01:24:03;7.73;;;4.60;;
61642;SDS011;47551;52.506;4.678;2022-10-31T01:24:23;7.43;;;4.45;;
61642;SDS011;47551;52.506;4.678;2022-10-31T01:24:43;7.97;;;4.23;;
61642;SDS011;47551;52.506;4.678;2022-10-31T01:25:05;7.50;;;4.68;;
61642;SDS011;47551;52.506;4.678;2022-10-31T01:25:25;6.65;;;4.57;;
61642;SDS011;47551;52.506;4.678;2022-10-31T01:25:45;7.00;;;4.40;;
61642;SDS011;47551;52.506;4.678;2022-10-31T01:26:16;7.07;;;4.63;;
61642;SDS011;47551;52.506;4.678;2022-10-31T01:26:36;7.35;;;4.35;;
61642;SDS011;47551;52.506;4.678;2022-10-31T01:26:57;6.83;;;4.13;;
61642;SDS011;47551;52.506;4.678;2022-10-31T01:27:17;6.97;;;4.10;;
61642;SDS011;47551;52.506;4.678;2022-10-31T01:27:37;7.67;;;4.30;;
61642;SDS011;47551;52.506;4.678;2022-10-31T01:27:57;8.20;;;4.40;;
61642;SDS011;47551;52.506;4.678;2022-10-31T01:28:17;7.70;;;4.50;;
61642;SDS011;47551;52.506;4.678;2022-10-31T01:28:38;7.90;;;4.50;;
61642;SDS011;47551;52.506;4.678;2022-10-31T01:29:00;7.22;;;4.30;;
61642;SDS011;47551;52.506;4.678;2022-10-31T01:29:21;6.75;;;4.28;;
61642;SDS011;47551;52.506;4.678;2022-10-31T01:29:41;6.70;;;4.60;;
61642;SDS011;47551;52.506;4.678;2022-10-31T01:30:01;6.40;;;4.20;;
61642;SDS011;47551;52.506;4.678;2022-10-31T01:30:21;7.00;;;4.47;;
61642;SDS011;47551;52.506;4.678;2022-10-31T01:30:41;6.93;;;4.50;;
61642;SDS011;47551;52.506;4.678;2022-10-31T01:31:05;6.73;;;4.60;;
61642;SDS011;47551;52.506;4.678;2022-10-31T01:31:27;7.00;;;4.40;;
61642;SDS011;47551;52.506;4.678;2022-10-31T01:31:48;5.35;;;3.95;;
61642;SDS011;47551;52.506;4.678;2022-10-31T01:32:08;6.30;;;4.23;;
61642;SDS011;47551;52.506;4.678;2022-10-31T01:32:28;6.80;;;4.50;;
61642;SDS011;47551;52.506;4.678;2022-10-31T01:32:49;6.53;;;4.37;;
61642;SDS011;47551;52.506;4.678;2022-10-31T01:33:09;7.03;;;4.10;;
61642;SDS011;47551;52.506;4.678;2022-10-31T01:33:31;6.30;;;4.10;;
61642;SDS011;47551;52.506;4.678;2022-10-31T01:33:51;6.10;;;4.40;;
61642;SDS011;47551;52.506;4.678;2022-10-31T01:34:12;7.10;;;5.00;;
61642;SDS011;47551;52.506;4.678;2022-10-31T01:34:32;8.70;;;5.20;;
61642;SDS011;47551;52.506;4.678;2022-10-31T01:34:53;7.78;;;5.05;;
61642;SDS011;47551;52.506;4.678;2022-10-31T01:35:13;6.70;;;4.43;;
61642;SDS011;47551;52.506;4.678;2022-10-31T01:35:33;6.43;;;4.30;;
61642;SDS011;47551;52.506;4.678;2022-10-31T01:35:53;7.47;;;4.37;;
61642;SDS011;47551;52.506;4.678;2022-10-31T01:36:35;6.87;;;4.70;;
61642;SDS011;47551;52.506;4.678;2022-10-31T01:36:55;7.15;;;4.70;;
61642;SDS011;47551;52.506;4.678;2022-10-31T01:37:15;7.13;;;4.90;;
61642;SDS011;47551;52.506;4.678;2022-10-31T01:37:36;7.30;;;4.90;;
61642;SDS011;47551;52.506;4.678;2022-10-31T01:37:56;8.17;;;5.10;;
61642;SDS011;47551;52.506;4.678;2022-10-31T01:38:19;8.07;;;5.00;;
61642;SDS011;47551;52.506;4.678;2022-10-31T01:38:39;7.23;;;4.70;;
61642;SDS011;47551;52.506;4.678;2022-10-31T01:39:09;8.68;;;4.93;;
61642;SDS011;47551;52.506;4.678;2022-10-31T01:39:30;7.55;;;5.00;;
61642;SDS011;47551;52.506;4.678;2022-10-31T01:39:50;7.63;;;5.03;;
61642;SDS011;47551;52.506;4.678;2022-10-31T01:40:10;6.90;;;4.87;;
61642;SDS011;47551;52.506;4.678;2022-10-31T01:40:30;6.80;;;5.00;;
61642;SDS011;47551;52.506;4.678;2022-10-31T01:40:51;7.68;;;5.03;;
61642;SDS011;47551;52.506;4.678;2022-10-31T01:41:15;7.35;;;4.88;;
61642;SDS011;47551;52.506;4.678;2022-10-31T01:41:37;7.45;;;4.80;;
61642;SDS011;47551;52.506;4.678;2022-10-31T01:41:57;8.38;;;4.90;;
61642;SDS011;47551;52.506;4.678;2022-10-31T01:42:19;8.57;;;4.83;;
61642;SDS011;47551;52.506;4.678;2022-10-31T01:42:45;7.72;;;4.88;;
61642;SDS011;47551;52.506;4.678;2022-10-31T01:43:08;6.67;;;4.90;;
61642;SDS011;47551;52.506;4.678;2022-10-31T01:43:45;7.15;;;5.20;;
61642;SDS011;47551;52.506;4.678;2022-10-31T01:44:57;8.30;;;5.50;;
61642;SDS011;47551;52.506;4.678;2022-10-31T01:45:17;8.05;;;5.28;;
61642;SDS011;47551;52.506;4.678;2022-10-31T01:45:38;8.03;;;5.20;;
61642;SDS011;47551;52.506;4.678;2022-10-31T01:45:58;7.97;;;5.32;;
61642;SDS011;47551;52.506;4.678;2022-10-31T01:46:29;6.77;;;5.03;;
61642;SDS011;47551;52.506;4.678;2022-10-31T01:47:01;7.03;;;4.97;;
61642;SDS011;47551;52.506;4.678;2022-10-31T01:47:29;7.28;;;5.10;;
61642;SDS011;47551;52.506;4.678;2022-10-31T01:47:51;7.10;;;5.20;;
61642;SDS011;47551;52.506;4.678;2022-10-31T01:48:14;7.80;;;5.30;;
61642;SDS011;47551;52.506;4.678;2022-10-31T01:48:35;7.65;;;5.53;;
61642;SDS011;47551;52.506;4.678;2022-10-31T01:48:55;9.27;;;5.70;;
61642;SDS011;47551;52.506;4.678;2022-10-31T01:49:51;7.88;;;5.47;;
61642;SDS011;47551;52.506;4.678;2022-10-31T01:50:04;8.00;;;5.20;;
61642;SDS011;47551;52.506;4.678;2022-10-31T01:50:27;7.85;;;5.25;;
61642;SDS011;47551;52.506;4.678;2022-10-31T01:50:48;9.18;;;5.47;;
61642;SDS011;47551;52.506;4.678;2022-10-31T01:51:11;8.85;;;5.40;;
61642;SDS011;47551;52.506;4.678;2022-10-31T01:51:33;7.50;;;5.13;;
61642;SDS011;47551;52.506;4.678;2022-10-31T01:51:56;6.57;;;5.07;;
61642;SDS011;47551;52.506;4.678;2022-10-31T01:52:43;7.63;;;5.60;;
61642;SDS011;47551;52.506;4.678;2022-10-31T01:53:04;7.88;;;5.32;;
61642;SDS011;47551;52.506;4.678;2022-10-31T01:53:26;7.35;;;5.50;;
61642;SDS011;47551;52.506;4.678;2022-10-31T01:53:46;7.47;;;5.55;;
61642;SDS011;47551;52.506;4.678;2022-10-31T01:54:08;7.43;;;5.43;;
61642;SDS011;47551;52.506;4.678;2022-10-31T01:54:31;7.93;;;5.47;;
61642;SDS011;47551;52.506;4.678;2022-10-31T01:55:18;7.72;;;5.25;;
61642;SDS011;47551;52.506;4.678;2022-10-31T01:55:39;7.72;;;5.40;;
61642;SDS011;47551;52.506;4.678;2022-10-31T01:56:01;7.72;;;5.47;;
61642;SDS011;47551;52.506;4.678;2022-10-31T01:56:21;7.83;;;5.73;;
61642;SDS011;47551;52.506;4.678;2022-10-31T01:56:42;7.27;;;5.47;;
61642;SDS011;47551;52.506;4.678;2022-10-31T01:57:03;8.10;;;5.82;;
61642;SDS011;47551;52.506;4.678;2022-10-31T01:57:25;8.35;;;5.90;;
61642;SDS011;47551;52.506;4.678;2022-10-31T01:57:46;7.35;;;5.47;;
61642;SDS011;47551;52.506;4.678;2022-10-31T01:58:09;7.82;;;5.80;;
61642;SDS011;47551;52.506;4.678;2022-10-31T01:58:31;7.50;;;5.50;;
61642;SDS011;47551;52.506;4.678;2022-10-31T01:58:51;7.85;;;5.50;;
61642;SDS011;47551;52.506;4.678;2022-10-31T01:59:11;7.27;;;5.53;;
61642;SDS011;47551;52.506;4.678;2022-10-31T01:59:34;8.15;;;5.53;;
61642;SDS011;47551;52.506;4.678;2022-10-31T01:59:57;9.68;;;5.85;;
61642;SDS011;47551;52.506;4.678;2022-10-31T02:00:19;8.05;;;5.70;;
61642;SDS011;47551;52.506;4.678;2022-10-31T02:00:41;7.88;;;5.72;;
61642;SDS011;47551;52.506;4.678;2022-10-31T02:01:05;8.52;;;6.10;;
61642;SDS011;47551;52.506;4.678;2022-10-31T02:01:26;7.80;;;6.00;;
61642;SDS011;47551;52.506;4.678;2022-10-31T02:01:50;8.52;;;6.10;;
61642;SDS011;47551;52.506;4.678;2022-10-31T02:02:10;8.57;;;5.77;;
61642;SDS011;47551;52.506;4.678;2022-10-31T02:02:31;8.38;;;5.80;;
61642;SDS011;47551;52.506;4.678;2022-10-31T02:02:51;7.50;;;5.93;;
61642;SDS011;47551;52.506;4.678;2022-10-31T02:03:11;7.55;;;6.20;;
61642;SDS011;47551;52.506;4.678;2022-10-31T02:03:32;7.87;;;5.83;;
61642;SDS011;47551;52.506;4.678;2022-10-31T02:03:52;7.68;;;5.72;;
61642;SDS011;47551;52.506;4.678;2022-10-31T02:04:15;7.47;;;5.90;;
61642;SDS011;47551;52.506;4.678;2022-10-31T02:04:36;7.95;;;6.03;;
61642;SDS011;47551;52.506;4.678;2022-10-31T02:04:56;8.77;;;6.07;;
61642;SDS011;47551;52.506;4.678;2022-10-31T02:05:18;7.67;;;5.73;;
61642;SDS011;47551;52.506;4.678;2022-10-31T02:05:39;8.27;;;6.28;;
61642;SDS011;47551;52.506;4.678;2022-10-31T02:06:05;8.10;;;6.45;;
61642;SDS011;47551;52.506;4.678;2022-10-31T02:06:43;7.88;;;6.38;;
61642;SDS011;47551;52.506;4.678;2022-10-31T02:07:10;9.10;;;6.53;;
61642;SDS011;47551;52.506;4.678;2022-10-31T02:07:37;8.98;;;6.55;;
61642;SDS011;47551;52.506;4.678;2022-10-31T02:08:26;8.27;;;6.32;;
61642;SDS011;47551;52.506;4.678;2022-10-31T02:08:47;9.13;;;6.40;;
61642;SDS011;47551;52.506;4.678;2022-10-31T02:09:07;9.87;;;6.40;;
61642;SDS011;47551;52.506;4.678;2022-10-31T02:09:27;9.60;;;6.67;;
61642;SDS011;47551;52.506;4.678;2022-10-31T02:09:48;8.25;;;6.43;;
61642;SDS011;47551;52.506;4.678;2022-10-31T02:10:09;7.13;;;6.13;;
61642;SDS011;47551;52.506;4.678;2022-10-31T02:10:33;7.38;;;6.30;;
61642;SDS011;47551;52.506;4.678;2022-10-31T02:10:54;8.43;;;6.43;;
61642;SDS011;47551;52.506;4.678;2022-10-31T02:11:14;8.00;;;6.40;;
61642;SDS011;47551;52.506;4.678;2022-10-31T02:11:34;8.15;;;6.57;;
61642;SDS011;47551;52.506;4.678;2022-10-31T02:11:56;8.40;;;6.30;;